createdAt,value
2022-09-22T00:00:05.157Z,4.58
2022-09-22T00:01:31.280Z,5.07
2022-09-22T00:02:33.009Z,4.88
2022-09-22T00:03:38.246Z,4.81
2022-09-22T00:04:39.841Z,4.73
2022-09-22T00:05:41.574Z,4.90
2022-09-22T00:06:51.251Z,4.91
2022-09-22T00:07:54.004Z,5.02
2022-09-22T00:09:01.698Z,4.55
2022-09-22T00:10:03.853Z,4.22
2022-09-22T00:11:16.973Z,4.92
2022-09-22T00:12:18.637Z,4.49
2022-09-22T00:13:20.256Z,4.93
2022-09-22T00:14:25.479Z,4.92
2022-09-22T00:15:27.107Z,4.70
2022-09-22T00:16:32.882Z,4.75
2022-09-22T00:17:34.511Z,5.01
2022-09-22T00:18:36.433Z,4.64
2022-09-22T00:19:38.448Z,5.05
2022-09-22T00:20:40.178Z,4.82
2022-09-22T00:21:42.259Z,4.84
2022-09-22T00:22:43.894Z,4.92
2022-09-22T00:23:47.189Z,4.67
2022-09-22T00:24:48.837Z,4.36
2022-09-22T00:25:50.562Z,4.90
2022-09-22T00:26:57.385Z,5.25
2022-09-22T00:27:59.039Z,4.77
2022-09-22T00:29:01.556Z,4.66
2022-09-22T00:30:03.686Z,4.84
2022-09-22T00:31:10.219Z,5.18
2022-09-22T00:32:13.496Z,4.99
2022-09-22T00:33:15.121Z,4.71
2022-09-22T00:34:19.738Z,5.05
2022-09-22T00:35:21.797Z,5.06
2022-09-22T00:36:26.654Z,4.94
2022-09-22T00:37:28.305Z,4.92
2022-09-22T00:38:30.046Z,4.67
2022-09-22T00:39:31.930Z,4.86
2022-09-22T00:40:35.876Z,4.83
2022-09-22T00:41:41.869Z,4.79
2022-09-22T00:42:43.595Z,4.63
2022-09-22T00:43:49.290Z,4.24
2022-09-22T00:44:50.909Z,4.84
2022-09-22T00:45:59.609Z,4.48
2022-09-22T00:47:40.816Z,4.41
2022-09-22T00:48:56.099Z,5.19
2022-09-22T00:50:09.035Z,4.67
2022-09-22T00:51:16.510Z,4.79
2022-09-22T00:52:25.676Z,4.84
2022-09-22T00:53:29.541Z,4.26
2022-09-22T00:54:32.775Z,4.90
2022-09-22T00:55:52.767Z,4.61
2022-09-22T00:57:07.012Z,5.02
2022-09-22T00:58:15.554Z,4.87
2022-09-22T00:59:22.346Z,5.25
2022-09-22T01:00:23.966Z,4.76
2022-09-22T01:01:25.994Z,4.75
2022-09-22T01:02:27.632Z,4.84
2022-09-22T01:03:30.164Z,4.96
2022-09-22T01:04:32.029Z,4.67
2022-09-22T01:05:36.965Z,4.84
2022-09-22T01:06:40.330Z,5.05
2022-09-22T01:07:43.114Z,5.87
2022-09-22T01:08:45.557Z,5.40
2022-09-22T01:09:47.285Z,5.09
2022-09-22T01:10:49.741Z,4.89
2022-09-22T01:11:51.555Z,4.95
2022-09-22T01:13:27.361Z,5.17
2022-09-22T01:14:37.881Z,5.10
2022-09-22T01:16:10.890Z,5.03
2022-09-22T01:17:49.830Z,5.10
2022-09-22T01:19:16.188Z,4.97
2022-09-22T01:20:41.123Z,4.72
2022-09-22T01:22:34.048Z,4.93
2022-09-22T01:24:05.107Z,4.83
2022-09-22T01:25:27.434Z,4.63
2022-09-22T01:26:56.176Z,5.03
2022-09-22T01:28:16.805Z,5.06
2022-09-22T01:29:21.206Z,4.88
2022-09-22T01:31:00.597Z,5.32
2022-09-22T01:32:17.141Z,4.75
2022-09-22T01:33:33.894Z,4.89
2022-09-22T01:34:56.629Z,5.62
2022-09-22T01:36:27.090Z,5.38
2022-09-22T01:38:02.665Z,4.72
2022-09-22T01:39:10.299Z,4.92
2022-09-22T01:40:51.595Z,4.76
2022-09-22T01:42:12.248Z,5.28
2022-09-22T01:43:41.665Z,5.74
2022-09-22T01:45:05.258Z,4.89
2022-09-22T01:46:17.384Z,4.63
2022-09-22T01:47:28.441Z,5.27
2022-09-22T01:48:35.475Z,5.28
2022-09-22T01:49:45.504Z,5.52
2022-09-22T01:50:55.610Z,5.74
2022-09-22T01:52:09.474Z,5.26
2022-09-22T01:53:16.789Z,5.27
2022-09-22T01:54:26.090Z,5.28
2022-09-22T01:55:36.864Z,5.30
2022-09-22T01:56:42.444Z,5.26
2022-09-22T01:58:13.570Z,5.22
2022-09-22T01:59:20.104Z,5.78
2022-09-22T02:00:23.278Z,5.86
2022-09-22T02:01:36.022Z,5.78
2022-09-22T02:02:45.207Z,5.68
2022-09-22T02:03:54.727Z,5.93
2022-09-22T02:05:03.150Z,5.84
2022-09-22T02:06:13.047Z,6.35
2022-09-22T02:07:28.736Z,6.11
2022-09-22T02:08:39.947Z,6.96
2022-09-22T02:09:43.607Z,6.52
2022-09-22T02:10:48.539Z,7.29
2022-09-22T02:11:50.351Z,7.14
2022-09-22T02:12:52.491Z,7.33
2022-09-22T02:13:54.925Z,7.07
2022-09-22T02:14:56.686Z,7.30
2022-09-22T02:16:01.000Z,7.60
2022-09-22T02:17:03.074Z,7.17
2022-09-22T02:18:18.356Z,6.80
2022-09-22T02:19:32.240Z,6.80
2022-09-22T02:20:34.571Z,7.04
2022-09-22T02:21:36.357Z,6.84
2022-09-22T02:22:38.287Z,7.17
2022-09-22T02:23:41.970Z,6.96
2022-09-22T02:24:45.882Z,7.60
2022-09-22T02:25:50.362Z,7.68
2022-09-22T02:26:53.322Z,7.64
2022-09-22T02:27:58.050Z,7.62
2022-09-22T02:29:08.765Z,7.77
2022-09-22T02:30:12.941Z,8.03
2022-09-22T02:31:20.757Z,7.91
2022-09-22T02:32:25.641Z,8.61
2022-09-22T02:33:34.906Z,8.52
2022-09-22T02:34:40.513Z,7.69
2022-09-22T02:35:55.157Z,8.47
2022-09-22T02:37:33.412Z,8.52
2022-09-22T02:39:02.307Z,9.24
2022-09-22T02:40:27.898Z,8.51
2022-09-22T02:41:40.123Z,9.02
2022-09-22T02:42:48.352Z,9.51
2022-09-22T02:44:00.717Z,10.39
2022-09-22T02:45:22.084Z,9.57
2022-09-22T02:47:02.089Z,10.10
2022-09-22T02:48:21.449Z,9.84
2022-09-22T02:49:26.768Z,10.12
2022-09-22T02:50:31.644Z,10.48
2022-09-22T02:51:34.516Z,10.33
2022-09-22T02:52:38.673Z,11.07
2022-09-22T02:53:40.548Z,11.40
2022-09-22T02:54:42.179Z,11.15
2022-09-22T02:55:46.038Z,10.67
2022-09-22T02:56:47.766Z,10.60
2022-09-22T02:57:49.470Z,10.60
2022-09-22T02:58:54.077Z,11.32
2022-09-22T02:59:59.297Z,11.14
2022-09-22T03:01:01.030Z,11.23
2022-09-22T03:02:02.732Z,10.44
2022-09-22T03:03:04.758Z,10.64
2022-09-22T03:04:06.806Z,11.40
2022-09-22T03:05:08.595Z,11.85
2022-09-22T03:06:10.342Z,11.69
2022-09-22T03:07:12.024Z,11.28
2022-09-22T03:08:13.736Z,11.18
2022-09-22T03:09:17.608Z,11.21
2022-09-22T03:10:19.527Z,11.38
2022-09-22T03:11:21.149Z,10.40
2022-09-22T03:12:22.883Z,10.45
2022-09-22T03:13:24.577Z,11.08
2022-09-22T03:14:26.220Z,10.12
2022-09-22T03:15:28.207Z,10.70
2022-09-22T03:16:30.205Z,10.93
2022-09-22T03:17:32.926Z,10.80
2022-09-22T03:18:34.973Z,10.89
2022-09-22T03:19:36.749Z,10.05
2022-09-22T03:20:38.597Z,10.59
2022-09-22T03:21:40.327Z,9.91
2022-09-22T03:22:42.719Z,10.92
2022-09-22T03:23:44.512Z,10.27
2022-09-22T03:24:46.109Z,10.70
2022-09-22T03:25:47.769Z,10.32
2022-09-22T03:26:49.405Z,9.43
2022-09-22T03:27:51.090Z,9.11
2022-09-22T03:28:53.362Z,8.96
2022-09-22T03:29:55.206Z,9.17
2022-09-22T03:30:56.879Z,9.26
2022-09-22T03:31:58.541Z,8.95
2022-09-22T03:33:00.151Z,8.41
2022-09-22T03:34:01.864Z,8.52
2022-09-22T03:35:04.409Z,8.60
2022-09-22T03:36:06.590Z,8.51
2022-09-22T03:37:08.191Z,7.82
2022-09-22T03:38:10.143Z,8.76
2022-09-22T03:39:11.758Z,7.98
2022-09-22T03:40:13.606Z,8.31
2022-09-22T03:41:15.285Z,7.92
2022-09-22T03:42:17.319Z,7.76
2022-09-22T03:43:19.832Z,7.48
2022-09-22T03:44:21.441Z,7.56
2022-09-22T03:45:23.617Z,8.01
2022-09-22T03:46:26.344Z,7.50
2022-09-22T03:47:27.978Z,6.93
2022-09-22T03:48:31.246Z,7.21
2022-09-22T03:49:33.185Z,7.23
2022-09-22T03:50:34.828Z,6.86
2022-09-22T03:51:36.561Z,6.48
2022-09-22T03:52:40.021Z,6.97
2022-09-22T03:53:41.662Z,6.36
2022-09-22T03:54:43.302Z,6.41
2022-09-22T03:55:44.971Z,6.77
2022-09-22T03:56:46.725Z,6.56
2022-09-22T03:57:48.338Z,6.86
2022-09-22T03:58:49.962Z,6.47
2022-09-22T03:59:52.335Z,6.40
2022-09-22T04:00:53.960Z,6.58
2022-09-22T04:01:58.275Z,6.55
2022-09-22T04:03:00.127Z,6.51
2022-09-22T04:04:02.331Z,6.54
2022-09-22T04:05:04.178Z,6.44
2022-09-22T04:06:06.389Z,6.20
2022-09-22T04:07:08.080Z,5.75
2022-09-22T04:08:09.679Z,6.37
2022-09-22T04:09:11.870Z,6.20
2022-09-22T04:10:13.474Z,6.00
2022-09-22T04:11:15.508Z,5.45
2022-09-22T04:12:17.166Z,5.88
2022-09-22T04:13:19.082Z,5.79
2022-09-22T04:14:20.812Z,6.41
2022-09-22T04:15:22.429Z,6.03
2022-09-22T04:16:24.391Z,5.86
2022-09-22T04:17:26.237Z,6.18
2022-09-22T04:18:29.491Z,6.48
2022-09-22T04:19:35.471Z,6.25
2022-09-22T04:20:43.317Z,5.49
2022-09-22T04:21:45.284Z,6.37
2022-09-22T04:22:46.990Z,5.93
2022-09-22T04:23:49.015Z,5.76
2022-09-22T04:24:50.798Z,6.30
2022-09-22T04:25:52.789Z,6.29
2022-09-22T04:27:19.043Z,5.91
2022-09-22T04:28:17.101Z,5.92
2022-09-22T04:29:18.734Z,6.08
2022-09-22T04:30:20.346Z,5.73
2022-09-22T04:31:22.914Z,5.69
2022-09-22T04:32:24.626Z,5.20
2022-09-22T04:33:26.509Z,4.86
2022-09-22T04:34:28.194Z,5.53
2022-09-22T04:35:30.499Z,5.25
2022-09-22T04:36:32.110Z,5.35
2022-09-22T04:37:33.784Z,5.49
2022-09-22T04:38:35.598Z,5.48
2022-09-22T04:39:37.414Z,5.14
2022-09-22T04:40:39.150Z,5.73
2022-09-22T04:41:40.823Z,5.77
2022-09-22T04:42:44.809Z,5.92
2022-09-22T04:43:46.647Z,5.06
2022-09-22T04:44:48.378Z,5.13
2022-09-22T04:45:50.063Z,5.37
2022-09-22T04:46:51.832Z,5.61
2022-09-22T04:47:54.007Z,4.85
2022-09-22T04:48:55.814Z,5.06
2022-09-22T04:49:57.457Z,5.23
2022-09-22T04:50:59.104Z,5.36
2022-09-22T04:52:00.857Z,5.23
2022-09-22T04:53:02.533Z,5.50
2022-09-22T04:54:04.203Z,6.14
2022-09-22T04:55:06.581Z,5.86
2022-09-22T04:56:08.235Z,6.54
2022-09-22T04:57:09.939Z,6.12
2022-09-22T04:58:11.798Z,6.69
2022-09-22T04:59:13.533Z,6.37
2022-09-22T05:00:15.993Z,6.80
2022-09-22T05:01:17.654Z,7.02
2022-09-22T05:02:19.274Z,6.84
2022-09-22T05:03:22.361Z,7.60
2022-09-22T05:04:24.737Z,6.76
2022-09-22T05:05:27.510Z,7.68
2022-09-22T05:06:29.159Z,7.88
2022-09-22T05:07:30.789Z,7.33
2022-09-22T05:08:32.485Z,8.47
2022-09-22T05:09:34.429Z,8.50
2022-09-22T05:10:37.216Z,8.29
2022-09-22T05:11:39.517Z,7.87
2022-09-22T05:12:43.037Z,8.21
2022-09-22T05:13:45.745Z,8.47
2022-09-22T05:14:48.557Z,7.83
2022-09-22T05:15:50.142Z,7.70
2022-09-22T05:16:51.802Z,7.98
2022-09-22T05:17:55.305Z,9.35
2022-09-22T05:18:57.019Z,8.67
2022-09-22T05:19:58.739Z,8.95
2022-09-22T05:21:01.814Z,8.86
2022-09-22T05:22:03.544Z,8.98
2022-09-22T05:23:07.113Z,9.12
2022-09-22T05:24:08.778Z,8.93
2022-09-22T05:25:13.413Z,10.02
2022-09-22T05:26:15.102Z,8.87
2022-09-22T05:27:16.714Z,8.77
2022-09-22T05:28:19.310Z,9.16
2022-09-22T05:29:23.533Z,10.18
2022-09-22T05:30:29.079Z,10.00
2022-09-22T05:31:30.727Z,9.55
2022-09-22T05:32:32.368Z,9.84
2022-09-22T05:33:34.063Z,9.16
2022-09-22T05:34:35.693Z,9.91
2022-09-22T05:35:37.378Z,9.98
2022-09-22T05:36:39.485Z,10.13
2022-09-22T05:37:45.906Z,9.84
2022-09-22T05:38:47.537Z,9.78
2022-09-22T05:39:49.141Z,9.71
2022-09-22T05:40:50.786Z,9.64
2022-09-22T05:41:52.574Z,9.56
2022-09-22T05:42:54.848Z,9.93
2022-09-22T05:43:56.444Z,9.15
2022-09-22T05:44:58.178Z,9.95
2022-09-22T05:45:59.967Z,9.54
2022-09-22T05:47:01.622Z,10.17
2022-09-22T05:48:03.344Z,9.58
2022-09-22T05:49:04.982Z,9.51
2022-09-22T05:50:09.030Z,10.11
2022-09-22T05:51:10.908Z,10.14
2022-09-22T05:52:12.545Z,9.35
2022-09-22T05:53:15.417Z,9.62
2022-09-22T05:54:21.225Z,8.50
2022-09-22T05:55:24.842Z,9.20
2022-09-22T05:56:26.479Z,9.51
2022-09-22T05:57:28.230Z,9.81
2022-09-22T05:58:30.004Z,10.12
2022-09-22T05:59:31.634Z,10.08
2022-09-22T06:00:33.682Z,9.88
2022-09-22T06:01:35.311Z,9.67
2022-09-22T06:02:37.055Z,9.94
2022-09-22T06:03:38.792Z,9.89
2022-09-22T06:04:40.565Z,9.95
2022-09-22T06:05:44.724Z,9.64
2022-09-22T06:06:46.336Z,9.67
2022-09-22T06:07:49.204Z,9.88
2022-09-22T06:08:51.052Z,10.42
2022-09-22T06:09:52.705Z,10.59
2022-09-22T06:10:54.437Z,10.27
2022-09-22T06:11:56.091Z,10.22
2022-09-22T06:13:03.620Z,10.91
2022-09-22T06:14:05.285Z,10.28
2022-09-22T06:15:07.457Z,9.64
2022-09-22T06:16:09.435Z,10.59
2022-09-22T06:17:12.821Z,10.98
2022-09-22T06:18:23.512Z,10.35
2022-09-22T06:19:28.806Z,10.60
2022-09-22T06:20:30.433Z,10.66
2022-09-22T06:21:32.123Z,10.42
2022-09-22T06:22:35.332Z,10.04
2022-09-22T06:23:40.679Z,9.88
2022-09-22T06:24:44.735Z,10.00
2022-09-22T06:25:46.455Z,9.69
2022-09-22T06:26:48.282Z,10.28
2022-09-22T06:28:05.613Z,10.65
2022-09-22T06:29:08.330Z,9.52
2022-09-22T06:30:11.335Z,9.43
2022-09-22T06:31:14.621Z,9.70
2022-09-22T06:32:16.301Z,10.05
2022-09-22T06:33:18.274Z,10.48
2022-09-22T06:34:19.876Z,10.09
2022-09-22T06:35:22.764Z,10.98
2022-09-22T06:36:31.434Z,10.38
2022-09-22T06:37:33.883Z,9.97
2022-09-22T06:38:35.534Z,10.86
2022-09-22T06:39:37.624Z,10.94
2022-09-22T06:40:39.486Z,10.66
2022-09-22T06:41:41.240Z,10.22
2022-09-22T06:42:43.850Z,10.77
2022-09-22T06:43:47.949Z,10.31
2022-09-22T06:44:49.708Z,10.29
2022-09-22T06:45:52.467Z,9.90
2022-09-22T06:46:54.141Z,9.05
2022-09-22T06:47:59.099Z,9.41
2022-09-22T06:49:00.943Z,9.64
2022-09-22T06:50:05.565Z,9.25
2022-09-22T06:51:07.295Z,9.25
2022-09-22T06:52:15.110Z,9.51
2022-09-22T06:53:19.089Z,10.19
2022-09-22T06:54:23.122Z,9.50
2022-09-22T06:55:27.375Z,9.30
2022-09-22T06:56:29.595Z,9.15
2022-09-22T06:57:32.778Z,9.25
2022-09-22T06:58:52.492Z,9.32
2022-09-22T06:59:56.298Z,8.68
2022-09-22T07:01:09.661Z,9.58
2022-09-22T07:02:12.549Z,9.45
2022-09-22T07:03:24.280Z,9.82
2022-09-22T07:04:25.896Z,9.67
2022-09-22T07:05:27.713Z,9.14
2022-09-22T07:06:29.674Z,9.20
2022-09-22T07:07:32.209Z,10.33
2022-09-22T07:08:36.324Z,10.34
2022-09-22T07:09:37.942Z,10.06
2022-09-22T07:10:39.538Z,10.04
2022-09-22T07:11:41.196Z,9.84
2022-09-22T07:12:43.023Z,9.35
2022-09-22T07:13:45.705Z,9.41
2022-09-22T07:14:49.322Z,9.54
2022-09-22T07:15:51.466Z,10.45
2022-09-22T07:16:55.201Z,9.44
2022-09-22T07:17:57.106Z,9.62
2022-09-22T07:18:59.002Z,9.83
2022-09-22T07:20:00.926Z,10.47
2022-09-22T07:21:08.446Z,11.36
2022-09-22T07:22:10.102Z,11.14
2022-09-22T07:23:18.397Z,12.30
2022-09-22T07:24:20.138Z,12.24
2022-09-22T07:25:21.750Z,11.79
2022-09-22T07:26:32.504Z,11.24
2022-09-22T07:27:34.925Z,10.86
2022-09-22T07:28:37.305Z,10.27
2022-09-22T07:29:39.882Z,10.22
2022-09-22T07:30:41.988Z,11.08
2022-09-22T07:31:44.238Z,9.95
2022-09-22T07:32:45.936Z,10.56
2022-09-22T07:33:47.633Z,10.49
2022-09-22T07:34:49.514Z,11.37
2022-09-22T07:36:05.700Z,10.92
2022-09-22T07:37:08.393Z,11.78
2022-09-22T07:38:10.081Z,12.22
2022-09-22T07:39:12.305Z,11.01
2022-09-22T07:40:14.723Z,10.56
2022-09-22T07:41:19.405Z,10.65
2022-09-22T07:42:21.140Z,11.27
2022-09-22T07:43:22.750Z,11.32
2022-09-22T07:44:44.645Z,11.06
2022-09-22T07:45:55.531Z,11.28
2022-09-22T07:46:57.931Z,10.25
2022-09-22T07:48:18.134Z,11.01
2022-09-22T07:49:21.532Z,10.75
2022-09-22T07:50:23.203Z,11.19
2022-09-22T07:51:25.680Z,10.98
2022-09-22T07:52:30.376Z,11.16
2022-09-22T07:53:32.877Z,10.29
2022-09-22T07:54:37.035Z,10.71
2022-09-22T07:55:38.825Z,10.65
2022-09-22T07:56:43.913Z,10.85
2022-09-22T07:57:47.263Z,10.52
2022-09-22T07:58:51.596Z,11.05
2022-09-22T07:59:53.383Z,10.84
2022-09-22T08:00:55.019Z,10.57
2022-09-22T08:01:56.761Z,10.02
2022-09-22T08:03:01.293Z,9.75
2022-09-22T08:04:04.571Z,10.09
2022-09-22T08:05:08.386Z,9.42
2022-09-22T08:06:11.294Z,9.95
2022-09-22T08:07:15.170Z,10.72
2022-09-22T08:08:16.799Z,10.05
2022-09-22T08:09:19.411Z,9.71
2022-09-22T08:10:21.416Z,10.85
2022-09-22T08:11:25.920Z,9.81
2022-09-22T08:12:28.172Z,10.66
2022-09-22T08:13:29.808Z,9.95
2022-09-22T08:14:31.432Z,10.58
2022-09-22T08:15:33.053Z,10.68
2022-09-22T08:16:38.311Z,11.16
2022-09-22T08:17:40.251Z,10.72
2022-09-22T08:18:41.961Z,10.05
2022-09-22T08:19:43.669Z,10.25
2022-09-22T08:20:45.982Z,9.33
2022-09-22T08:21:51.594Z,10.05
2022-09-22T08:22:58.125Z,9.20
2022-09-22T08:24:00.924Z,9.99
2022-09-22T08:25:03.163Z,9.64
2022-09-22T08:26:08.514Z,8.52
2022-09-22T08:27:10.236Z,9.22
2022-09-22T08:28:12.483Z,8.85
2022-09-22T08:29:14.115Z,9.54
2022-09-22T08:30:16.428Z,9.42
2022-09-22T08:31:21.540Z,10.44
2022-09-22T08:32:26.606Z,10.17
2022-09-22T08:33:31.598Z,9.03
2022-09-22T08:34:33.359Z,9.07
2022-09-22T08:35:34.990Z,9.14
2022-09-22T08:36:37.482Z,8.96
2022-09-22T08:37:41.646Z,8.69
2022-09-22T08:38:49.168Z,8.90
2022-09-22T08:39:50.790Z,9.18
2022-09-22T08:41:12.503Z,8.73
2022-09-22T08:42:20.771Z,8.44
2022-09-22T08:43:22.414Z,9.04
2022-09-22T08:44:37.389Z,8.69
2022-09-22T08:45:40.693Z,8.62
2022-09-22T08:46:44.714Z,7.74
2022-09-22T08:48:15.257Z,8.11
2022-09-22T08:50:00.038Z,8.32
2022-09-22T08:51:29.576Z,8.33
2022-09-22T08:52:53.275Z,7.91
2022-09-22T08:53:59.711Z,7.46
2022-09-22T08:55:13.962Z,7.02
2022-09-22T08:56:29.212Z,7.75
2022-09-22T08:57:41.347Z,8.46
2022-09-22T08:58:56.646Z,7.97
2022-09-22T09:00:06.376Z,7.33
2022-09-22T09:01:20.264Z,8.32
2022-09-22T09:02:44.574Z,8.69
2022-09-22T09:04:06.950Z,9.75
2022-09-22T09:05:30.344Z,8.87
2022-09-22T09:06:50.355Z,8.25
2022-09-22T09:08:03.280Z,8.14
2022-09-22T09:09:27.578Z,7.88
2022-09-22T09:10:55.254Z,7.57
2022-09-22T09:12:23.182Z,7.82
2022-09-22T09:13:43.249Z,7.70
2022-09-22T09:15:10.178Z,7.36
2022-09-22T09:16:26.015Z,7.32
2022-09-22T09:17:36.673Z,7.21
2022-09-22T09:18:45.514Z,6.54
2022-09-22T09:19:56.904Z,6.66
2022-09-22T09:21:04.363Z,6.89
2022-09-22T09:22:13.482Z,6.93
2022-09-22T09:23:23.401Z,7.41
2022-09-22T09:25:55.912Z,7.03
2022-09-22T09:27:09.421Z,6.29
2022-09-22T09:28:27.650Z,6.64
2022-09-22T09:29:38.788Z,6.70
2022-09-22T09:30:46.689Z,7.07
2022-09-22T09:31:53.537Z,6.57
2022-09-22T09:33:01.598Z,6.79
2022-09-22T09:34:14.664Z,6.42
2022-09-22T09:35:32.215Z,6.36
2022-09-22T09:36:39.394Z,6.21
2022-09-22T09:37:44.757Z,6.59
2022-09-22T09:38:54.318Z,6.68
2022-09-22T09:40:02.780Z,6.56
2022-09-22T09:41:19.358Z,6.49
2022-09-22T09:42:35.286Z,7.02
2022-09-22T09:43:37.903Z,7.09
2022-09-22T09:44:40.092Z,6.08
2022-09-22T09:46:12.389Z,6.30
2022-09-22T09:47:49.824Z,6.33
2022-09-22T09:49:22.022Z,6.35
2022-09-22T09:50:25.092Z,6.26
2022-09-22T09:51:28.698Z,6.26
2022-09-22T09:52:37.457Z,6.34
2022-09-22T09:53:44.476Z,5.78
2022-09-22T09:54:47.706Z,5.99
2022-09-22T09:55:50.652Z,5.89
2022-09-22T09:57:19.316Z,6.41
2022-09-22T09:58:39.542Z,5.56
2022-09-22T10:00:33.094Z,5.52
2022-09-22T10:01:35.249Z,4.95
2022-09-22T10:03:02.798Z,5.20
2022-09-22T10:04:04.675Z,5.42
2022-09-22T10:05:22.293Z,5.37
2022-09-22T10:06:26.353Z,5.09
2022-09-22T10:07:39.503Z,5.49
2022-09-22T10:08:45.454Z,5.08
2022-09-22T10:09:49.707Z,5.54
2022-09-22T10:10:58.587Z,5.33
2022-09-22T10:12:02.453Z,6.35
2022-09-22T10:13:03.967Z,6.15
2022-09-22T10:14:18.994Z,6.29
2022-09-22T10:15:26.294Z,5.76
2022-09-22T10:16:30.443Z,6.09
2022-09-22T10:17:42.693Z,5.38
2022-09-22T10:18:44.352Z,5.85
2022-09-22T10:19:45.962Z,6.53
2022-09-22T10:21:03.345Z,6.36
2022-09-22T10:22:27.382Z,5.94
2022-09-22T10:23:31.796Z,5.90
2022-09-22T10:24:33.472Z,5.37
2022-09-22T10:25:36.094Z,5.83
2022-09-22T10:26:51.938Z,6.38
2022-09-22T10:28:03.101Z,6.10
2022-09-22T10:29:18.561Z,6.61
2022-09-22T10:30:23.367Z,6.59
2022-09-22T10:31:25.088Z,5.75
2022-09-22T10:32:27.487Z,6.43
2022-09-22T10:33:29.751Z,6.69
2022-09-22T10:34:36.488Z,6.54
2022-09-22T10:35:39.944Z,6.16
2022-09-22T10:36:45.660Z,6.61
2022-09-22T10:37:48.766Z,6.89
2022-09-22T10:38:53.305Z,6.83
2022-09-22T10:40:03.414Z,6.81
2022-09-22T10:41:15.148Z,5.86
2022-09-22T10:42:37.014Z,5.30
2022-09-22T10:44:00.403Z,5.86
2022-09-22T10:45:19.362Z,5.82
2022-09-22T10:46:38.876Z,6.36
2022-09-22T10:47:51.307Z,4.97
2022-09-22T10:49:09.817Z,4.61
2022-09-22T10:50:23.926Z,4.74
2022-09-22T10:52:03.225Z,4.82
2022-09-22T10:53:43.711Z,4.44
2022-09-22T10:55:01.971Z,5.06
2022-09-22T10:56:21.912Z,4.86
2022-09-22T10:57:32.614Z,5.16
2022-09-22T10:59:12.471Z,4.87
2022-09-22T11:00:21.430Z,5.04
2022-09-22T11:01:50.765Z,5.35
2022-09-22T11:03:22.236Z,4.91
2022-09-22T11:04:43.331Z,5.07
2022-09-22T11:06:25.020Z,4.60
2022-09-22T11:08:11.390Z,4.05
2022-09-22T11:09:59.147Z,4.13
2022-09-22T11:11:39.678Z,4.58
2022-09-22T11:12:56.128Z,4.03
2022-09-22T11:14:28.472Z,3.92
2022-09-22T11:16:03.097Z,4.41
2022-09-22T11:17:22.666Z,4.54
2022-09-22T11:18:27.173Z,4.22
2022-09-22T11:19:46.198Z,3.47
2022-09-22T11:21:06.013Z,3.48
2022-09-22T11:22:45.555Z,2.85
2022-09-22T11:23:53.157Z,2.75
2022-09-22T11:25:32.356Z,2.62
2022-09-22T11:27:01.307Z,2.57
2022-09-22T11:28:34.704Z,2.74
2022-09-22T11:29:50.085Z,2.11
2022-09-22T11:30:54.499Z,2.00
2022-09-22T11:31:59.213Z,1.94
2022-09-22T11:33:39.310Z,1.94
2022-09-22T11:35:16.454Z,3.05
2022-09-22T11:36:31.771Z,2.27
2022-09-22T11:37:55.525Z,2.14
2022-09-22T11:39:11.728Z,2.80
2022-09-22T11:40:35.358Z,2.06
2022-09-22T11:41:45.209Z,2.15
2022-09-22T11:43:11.870Z,1.95
2022-09-22T11:44:31.920Z,1.87
2022-09-22T11:45:55.310Z,2.24
2022-09-22T11:47:21.821Z,2.02
2022-09-22T11:48:47.641Z,1.88
2022-09-22T11:50:23.630Z,2.10
2022-09-22T11:51:35.161Z,2.19
2022-09-22T11:52:58.556Z,2.28
2022-09-22T11:54:17.776Z,2.34
2022-09-22T11:55:25.481Z,2.47
2022-09-22T11:56:43.770Z,2.31
2022-09-22T11:57:51.872Z,2.17
2022-09-22T11:58:59.303Z,2.19
2022-09-22T12:00:18.852Z,2.47
2022-09-22T12:01:29.456Z,2.60
2022-09-22T12:03:01.897Z,2.50
2022-09-22T12:04:31.310Z,2.50
2022-09-22T12:05:50.771Z,2.30
2022-09-22T12:06:57.151Z,2.22
2022-09-22T12:08:07.668Z,1.86
2022-09-22T12:09:25.252Z,1.84
2022-09-22T12:10:38.081Z,2.01
2022-09-22T12:11:42.878Z,2.43
2022-09-22T12:12:48.551Z,2.83
2022-09-22T12:13:52.736Z,3.22
2022-09-22T12:15:03.337Z,2.77
2022-09-22T12:16:31.329Z,1.94
2022-09-22T12:17:58.458Z,1.82
2022-09-22T12:19:26.473Z,1.91
2022-09-22T12:20:54.398Z,1.39
2022-09-22T12:22:11.053Z,1.42
2022-09-22T12:23:27.634Z,1.40
2022-09-22T12:24:29.267Z,1.56
2022-09-22T12:25:55.471Z,1.74
2022-09-22T12:26:57.735Z,1.54
2022-09-22T12:27:59.438Z,1.52
2022-09-22T12:29:08.571Z,1.74
2022-09-22T12:30:30.543Z,1.68
2022-09-22T12:31:39.938Z,1.93
2022-09-22T12:32:43.249Z,2.01
2022-09-22T12:33:49.877Z,1.98
2022-09-22T12:34:56.171Z,2.22
2022-09-22T12:35:59.250Z,2.26
2022-09-22T12:37:14.390Z,2.10
2022-09-22T12:38:17.260Z,2.14
2022-09-22T12:39:23.385Z,2.07
2022-09-22T12:40:37.157Z,2.15
2022-09-22T12:41:57.852Z,2.65
2022-09-22T12:43:00.022Z,2.07
2022-09-22T12:44:23.380Z,1.91
2022-09-22T12:45:38.089Z,2.16
2022-09-22T12:46:43.309Z,2.12
2022-09-22T12:47:52.367Z,2.04
2022-09-22T12:48:54.591Z,1.86
2022-09-22T12:50:04.353Z,1.79
2022-09-22T12:51:24.278Z,1.86
2022-09-22T12:52:41.036Z,1.79
2022-09-22T12:53:44.024Z,1.75
2022-09-22T12:54:46.797Z,1.91
2022-09-22T12:55:53.754Z,2.00
2022-09-22T12:57:08.751Z,1.87
2022-09-22T12:58:22.304Z,1.69
2022-09-22T12:59:36.041Z,1.78
2022-09-22T13:00:41.000Z,1.95
2022-09-22T13:01:42.843Z,1.68
2022-09-22T13:02:47.152Z,1.84
2022-09-22T13:03:50.729Z,1.84
2022-09-22T13:04:55.294Z,1.89
2022-09-22T13:06:22.062Z,1.78
2022-09-22T13:07:40.228Z,1.70
2022-09-22T13:08:44.322Z,1.95
2022-09-22T13:09:45.955Z,2.18
2022-09-22T13:10:55.661Z,2.05
2022-09-22T13:12:12.075Z,1.77
2022-09-22T13:13:24.517Z,2.16
2022-09-22T13:15:01.341Z,2.15
2022-09-22T13:16:08.859Z,1.80
2022-09-22T13:17:32.640Z,1.84
2022-09-22T13:18:42.318Z,2.09
2022-09-22T13:19:55.934Z,2.05
2022-09-22T13:20:59.541Z,2.29
2022-09-22T13:22:17.830Z,2.22
2022-09-22T13:23:19.566Z,1.96
2022-09-22T13:24:26.434Z,1.85
2022-09-22T13:25:31.246Z,1.95
2022-09-22T13:26:38.837Z,2.08
2022-09-22T13:27:40.532Z,2.33
2022-09-22T13:28:43.148Z,2.10
2022-09-22T13:29:57.929Z,2.05
2022-09-22T13:31:12.022Z,1.98
2022-09-22T13:32:26.592Z,2.13
2022-09-22T13:33:34.029Z,2.25
2022-09-22T13:34:37.203Z,2.18
2022-09-22T13:35:41.847Z,2.00
2022-09-22T13:36:44.599Z,2.28
2022-09-22T13:37:46.250Z,2.29
2022-09-22T13:38:52.992Z,2.38
2022-09-22T13:39:55.316Z,2.81
2022-09-22T13:40:57.137Z,2.71
2022-09-22T13:42:08.330Z,2.71
2022-09-22T13:43:12.268Z,2.63
2022-09-22T13:44:23.448Z,2.60
2022-09-22T13:45:27.474Z,2.59
2022-09-22T13:46:39.858Z,2.46
2022-09-22T13:47:43.641Z,2.66
2022-09-22T13:48:45.749Z,2.94
2022-09-22T13:49:53.934Z,2.93
2022-09-22T13:51:05.525Z,2.60
2022-09-22T13:52:15.645Z,2.24
2022-09-22T13:53:20.612Z,2.33
2022-09-22T13:54:28.666Z,2.35
2022-09-22T13:55:34.812Z,2.28
2022-09-22T13:56:38.029Z,2.34
2022-09-22T13:57:41.701Z,2.05
2022-09-22T13:58:46.922Z,2.36
2022-09-22T13:59:50.599Z,2.34
2022-09-22T14:01:14.651Z,2.45
2022-09-22T14:02:20.716Z,2.44
2022-09-22T14:03:22.801Z,2.11
2022-09-22T14:04:27.368Z,2.37
2022-09-22T14:05:35.037Z,2.26
2022-09-22T14:06:37.756Z,2.23
2022-09-22T14:07:55.278Z,2.38
2022-09-22T14:09:03.795Z,2.27
2022-09-22T14:10:09.198Z,2.15
2022-09-22T14:11:28.135Z,2.43
2022-09-22T14:12:30.605Z,2.16
2022-09-22T14:13:39.868Z,1.99
2022-09-22T14:14:42.180Z,2.37
2022-09-22T14:15:44.054Z,2.17
2022-09-22T14:17:08.443Z,2.46
2022-09-22T14:18:25.982Z,2.47
2022-09-22T14:19:44.071Z,2.57
2022-09-22T14:20:47.585Z,2.45
2022-09-22T14:21:57.940Z,2.28
2022-09-22T14:23:00.618Z,2.47
2022-09-22T14:24:02.358Z,2.44
2022-09-22T14:25:04.477Z,2.18
2022-09-22T14:26:24.214Z,2.67
2022-09-22T14:27:47.505Z,2.71
2022-09-22T14:28:49.210Z,2.62
2022-09-22T14:29:53.475Z,2.40
2022-09-22T14:30:56.034Z,2.19
2022-09-22T14:32:12.476Z,2.32
2022-09-22T14:33:24.222Z,2.20
2022-09-22T14:34:33.737Z,2.71
2022-09-22T14:35:37.229Z,2.98
2022-09-22T14:36:44.501Z,2.39
2022-09-22T14:37:51.383Z,2.15
2022-09-22T14:39:09.990Z,2.58
2022-09-22T14:40:19.848Z,3.15
2022-09-22T14:41:24.923Z,2.34
2022-09-22T14:42:29.270Z,2.67
2022-09-22T14:43:41.963Z,2.15
2022-09-22T14:44:49.992Z,1.96
2022-09-22T14:46:00.781Z,2.26
2022-09-22T14:47:19.066Z,2.08
2022-09-22T14:48:34.377Z,1.81
2022-09-22T14:49:44.526Z,1.98
2022-09-22T14:50:58.490Z,2.54
2022-09-22T14:52:00.690Z,1.92
2022-09-22T14:53:18.300Z,2.15
2022-09-22T14:54:20.685Z,2.16
2022-09-22T14:55:39.348Z,2.43
2022-09-22T14:56:43.772Z,2.18
2022-09-22T14:57:49.309Z,2.42
2022-09-22T14:58:55.668Z,1.93
2022-09-22T15:00:18.376Z,2.60
2022-09-22T15:01:43.765Z,2.83
2022-09-22T15:02:52.653Z,2.79
2022-09-22T15:04:02.716Z,2.35
2022-09-22T15:05:04.940Z,3.04
2022-09-22T15:06:12.633Z,2.96
2022-09-22T15:07:31.275Z,2.43